Time;durP1;ratioP1;P1;durP2;ratioP2;P2;SDS_P1;SDS_P2;PMS_P1;PMS_P2;Temp;Humidity;BMP_temperature;BMP_pressure;BME280_temperature;BME280_humidity;BME280_pressure;Samples;Min_cycle;Max_cycle;Signal;HPM_P1;HPM_P2
2022/06/13 00:00:46;;;;;;;;;3.67;1.67;;;;;18.87;44.39;101812.66;5102823;27;48467;-66
2022/06/13 00:03:11;;;;;;;;;1.67;1.67;;;;;18.99;44.31;101838.03;5096689;27;47268;-66
2022/06/13 00:05:37;;;;;;;;;3.33;2.00;;;;;19.02;43.91;101829.94;5095998;27;45404;-67
2022/06/13 00:08:03;;;;;;;;;2.00;2.00;;;;;19.03;43.84;101824.53;5103570;27;45549;-66
2022/06/13 00:10:28;;;;;;;;;4.33;4.00;;;;;19.04;44.08;101833.56;5108239;27;46468;-65
2022/06/13 00:12:53;;;;;;;;;2.67;1.00;;;;;19.05;44.14;101841.72;5100246;27;45545;-65
2022/06/13 00:15:19;;;;;;;;;2.33;2.33;;;;;19.03;44.11;101843.50;5098330;27;45508;-67
2022/06/13 00:17:44;;;;;;;;;1.33;1.33;;;;;19.05;44.28;101840.81;5105699;27;45382;-65
2022/06/13 00:20:10;;;;;;;;;2.00;2.00;;;;;18.96;43.99;101839.84;5099158;27;46496;-66
2022/06/13 00:22:36;;;;;;;;;2.33;2.33;;;;;18.95;44.40;101838.00;5102726;27;45524;-66
2022/06/13 00:25:01;;;;;;;;;3.67;3.00;;;;;18.98;44.39;101839.84;5104290;27;45448;-65
2022/06/13 00:27:26;;;;;;;;;4.00;3.00;;;;;18.98;44.64;101839.84;5103865;27;45501;-67
2022/06/13 00:29:52;;;;;;;;;5.00;3.33;;;;;18.77;44.80;101802.59;5102828;27;45483;-66
2022/06/13 00:32:17;;;;;;;;;2.67;2.67;;;;;18.82;44.75;101824.31;5115357;27;45378;-67
2022/06/13 00:34:44;;;;;;;;;2.67;2.67;;;;;18.79;45.15;101838.72;5111093;27;45286;-66
2022/06/13 00:37:09;;;;;;;;;1.33;1.33;;;;;18.34;45.21;101753.47;5098061;27;45353;-64
2022/06/13 00:39:35;;;;;;;;;3.33;2.67;;;;;18.68;45.17;101824.19;5104620;27;45454;-65
2022/06/13 00:42:00;;;;;;;;;5.00;3.00;;;;;18.76;45.30;101839.63;5106113;27;45431;-64
2022/06/13 00:44:30;;;;;;;;;1.67;1.67;;;;;18.76;45.25;101836.00;5104922;27;45384;-64
2022/06/13 00:46:56;;;;;;;;;7.00;3.00;;;;;18.66;45.76;101817.84;5099788;27;45654;-65
2022/06/13 00:49:26;;;;;;;;;1.67;1.67;;;;;18.74;45.56;101829.66;5107529;27;45341;-64
2022/06/13 00:52:12;;;;;;;;;5.00;4.33;;;;;18.70;45.41;101811.56;5111212;27;45503;-66
2022/06/13 00:54:41;;;;;;;;;3.33;3.00;;;;;18.70;45.49;101798.03;5104890;27;45403;-66
2022/06/13 00:57:12;;;;;;;;;2.67;1.00;;;;;18.79;45.88;101817.06;5102922;27;45629;-68
2022/06/13 00:59:39;;;;;;;;;2.33;2.33;;;;;18.75;45.78;101820.66;5098721;27;46208;-67
2022/06/13 01:02:06;;;;;;;;;2.33;2.00;;;;;18.68;45.97;101802.53;5107281;27;45533;-64
2022/06/13 01:04:32;;;;;;;;;3.67;3.67;;;;;18.66;46.34;101791.69;5108063;27;45323;-65
2022/06/13 01:07:00;;;;;;;;;4.00;3.00;;;;;18.66;46.41;101804.28;5110528;27;45404;-65
2022/06/13 01:12:14;;;;;;;;;4.00;4.00;;;;;18.62;47.00;101794.34;5104732;27;45447;-66
2022/06/13 01:14:59;;;;;;;;;4.00;1.67;;;;;18.66;46.70;101798.88;5103581;27;45664;-65
2022/06/13 01:17:35;;;;;;;;;4.00;2.00;;;;;18.62;46.88;101797.94;5106789;27;45507;-67
2022/06/13 01:20:16;;;;;;;;;3.67;3.00;;;;;18.30;46.77;101735.41;5103649;27;45672;-67
2022/06/13 01:23:20;;;;;;;;;4.67;2.00;;;;;18.61;46.86;101798.88;5097940;27;45760;-65
2022/06/13 01:26:14;;;;;;;;;2.33;2.33;;;;;18.41;47.24;101755.34;5102312;27;45389;-65
2022/06/13 01:29:16;;;;;;;;;5.00;2.67;;;;;18.61;47.13;101796.16;5111516;27;45393;-67
2022/06/13 01:32:09;;;;;;;;;6.33;3.00;;;;;18.57;47.75;101795.19;5098731;27;45408;-65
2022/06/13 01:34:48;;;;;;;;;6.00;2.00;;;;;18.48;48.27;101792.41;5096126;27;45481;-65
2022/06/13 01:37:35;;;;;;;;;2.33;2.33;;;;;18.47;48.08;101795.09;5090523;27;45311;-65
2022/06/13 01:40:01;;;;;;;;;3.00;2.00;;;;;18.45;48.12;101789.66;5096071;27;45285;-66
2022/06/13 01:42:50;;;;;;;;;2.33;2.00;;;;;18.41;47.99;101785.09;5096566;27;46497;-65
2022/06/13 01:45:31;;;;;;;;;4.00;3.00;;;;;18.37;48.68;101788.69;5086647;27;45321;-66
2022/06/13 01:48:25;;;;;;;;;3.00;3.00;;;;;18.34;48.32;101789.53;5092383;27;45339;-64
2022/06/13 01:51:22;;;;;;;;;6.00;3.00;;;;;18.31;48.36;101800.31;5089078;27;45598;-65
2022/06/13 01:54:06;;;;;;;;;2.67;2.67;;;;;18.32;48.46;101803.97;5096036;27;46014;-67
2022/06/13 01:56:58;;;;;;;;;3.67;3.00;;;;;18.30;48.37;101801.22;5096379;27;45441;-64
2022/06/13 01:59:31;;;;;;;;;3.00;3.00;;;;;18.36;48.05;101811.19;5091062;27;45448;-64
2022/06/13 02:02:07;;;;;;;;;5.33;3.00;;;;;18.39;48.88;101812.13;5090921;27;45418;-66
2022/06/13 02:04:59;;;;;;;;;4.00;3.00;;;;;18.36;48.48;101797.69;5077633;27;46331;-66
2022/06/13 02:07:29;;;;;;;;;7.33;3.33;;;;;18.36;48.78;101811.19;5096460;27;45673;-64
2022/06/13 02:10:00;;;;;;;;;6.00;3.00;;;;;18.30;49.13;101803.03;5096465;27;45506;-64
2022/06/13 02:12:29;;;;;;;;;4.00;2.00;;;;;18.30;49.28;101806.66;5096311;27;45516;-68
2022/06/13 02:15:12;;;;;;;;;4.33;4.00;;;;;18.24;49.34;101801.16;5089787;27;46302;-63
2022/06/13 02:17:45;;;;;;;;;8.67;5.00;;;;;18.06;49.85;101788.31;5093051;27;45937;-65
2022/06/13 02:20:24;;;;;;;;;7.33;5.33;;;;;18.18;49.98;101798.38;5095680;27;45564;-65
2022/06/13 02:22:57;;;;;;;;;10.33;5.33;;;;;18.06;49.70;101791.03;5095769;27;45576;-64
2022/06/13 02:25:28;;;;;;;;;3.00;3.00;;;;;18.11;50.47;101800.09;5095578;27;46238;-64
2022/06/13 02:28:00;;;;;;;;;6.00;5.00;;;;;17.74;50.12;101728.44;5094277;27;45514;-65
2022/06/13 02:30:31;;;;;;;;;5.00;5.00;;;;;18.16;50.17;101802.84;5096188;27;45515;-66
2022/06/13 02:33:05;;;;;;;;;8.33;6.00;;;;;18.03;50.33;101778.38;5104540;27;45474;-67
2022/06/13 02:35:36;;;;;;;;;5.67;5.67;;;;;18.15;50.41;101795.63;5103203;27;46329;-66
2022/06/13 02:38:07;;;;;;;;;7.33;5.00;;;;;18.03;50.55;101797.31;5089626;27;45581;-66
2022/06/13 02:40:32;;;;;;;;;9.67;6.00;;;;;18.11;50.58;101799.19;5102101;27;45425;-65
2022/06/13 02:43:20;;;;;;;;;10.00;5.00;;;;;18.01;51.02;101790.06;5101574;27;45414;-65
2022/06/13 02:46:01;;;;;;;;;7.33;6.00;;;;;18.04;50.67;101800.91;5104875;27;46321;-64
2022/06/13 02:48:35;;;;;;;;;7.33;5.67;;;;;17.98;50.96;101787.31;5102479;27;45402;-64
2022/06/13 02:51:25;;;;;;;;;8.00;5.00;;;;;18.07;50.98;101792.84;5097637;27;45645;-64
2022/06/13 02:54:08;;;;;;;;;8.00;5.00;;;;;18.02;50.81;101802.69;5101100;27;45416;-64
2022/06/13 02:59:48;;;;;;;;;10.33;5.33;;;;;18.11;51.64;101796.50;5101909;27;45317;-66
2022/06/13 03:02:25;;;;;;;;;6.00;5.00;;;;;18.15;51.22;101804.66;5100207;27;45524;-65
2022/06/13 03:05:22;;;;;;;;;3.67;3.67;;;;;18.11;51.21;101799.19;5102806;27;45488;-65
2022/06/13 03:08:15;;;;;;;;;8.33;5.00;;;;;18.00;51.01;101789.16;5025923;27;46369;-65
2022/06/13 03:11:07;;;;;;;;;8.00;5.67;;;;;18.13;50.90;101809.16;5105352;27;46143;-64
2022/06/13 03:13:37;;;;;;;;;8.00;6.00;;;;;18.12;51.13;101809.13;5097502;27;45547;-67
2022/06/13 03:16:26;;;;;;;;;12.00;7.33;;;;;18.10;51.25;101811.81;5101401;27;45712;-65
2022/06/13 03:19:02;;;;;;;;;4.00;4.00;;;;;18.05;51.22;101821.69;5107399;27;46213;-65
2022/06/13 03:21:35;;;;;;;;;5.67;5.67;;;;;18.04;51.48;101817.16;5100911;27;45397;-66
2022/06/13 03:24:15;;;;;;;;;4.67;4.00;;;;;18.02;51.55;101811.72;5091124;27;45421;-65
2022/06/13 03:26:49;;;;;;;;;7.67;4.00;;;;;18.00;51.32;101820.69;5100734;27;45531;-64
2022/06/13 03:29:22;;;;;;;;;5.33;4.33;;;;;17.99;51.46;101830.59;5097445;27;46226;-67
2022/06/13 03:31:52;;;;;;;;;6.00;5.00;;;;;17.85;51.68;101827.69;5095706;27;45458;-64
2022/06/13 03:34:50;;;;;;;;;5.33;3.67;;;;;17.90;52.11;101834.97;5099371;27;45342;-65
2022/06/13 03:37:22;;;;;;;;;8.75;7.75;;;;;17.90;52.15;101835.91;5110014;27;45577;-65
2022/06/13 03:39:53;;;;;;;;;8.33;4.33;;;;;17.86;52.30;101842.09;5103385;27;45464;-64
2022/06/13 03:42:28;;;;;;;;;5.33;4.00;;;;;17.84;52.21;101841.19;5096947;27;45479;-64
2022/06/13 03:45:02;;;;;;;;;8.50;6.00;;;;;17.63;52.36;101803.94;5100862;27;45441;-65
2022/06/13 03:47:34;;;;;;;;;5.67;4.00;;;;;17.83;51.96;101844.75;5099484;27;45255;-67
2022/06/13 03:50:11;;;;;;;;;5.33;5.00;;;;;17.86;51.80;101845.72;5100979;27;46168;-67
2022/06/13 03:52:42;;;;;;;;;7.33;5.33;;;;;17.82;51.98;101834.84;5095678;27;45398;-64
2022/06/13 03:55:15;;;;;;;;;5.00;4.67;;;;;17.84;52.48;101844.78;5102077;27;45546;-65
2022/06/13 03:57:55;;;;;;;;;7.00;4.67;;;;;17.85;52.23;101840.28;5084277;27;45516;-67
2022/06/13 04:00:27;;;;;;;;;8.00;5.00;;;;;17.46;51.66;101769.47;5103490;27;46085;-65
2022/06/13 04:02:53;;;;;;;;;3.67;3.67;;;;;17.84;51.72;101844.78;5098279;27;45558;-67
2022/06/13 04:05:30;;;;;;;;;4.00;4.00;;;;;17.84;52.13;101847.50;5104574;27;45456;-65
2022/06/13 04:07:58;;;;;;;;;6.33;6.33;;;;;17.82;52.41;101837.56;5102936;27;45452;-66
2022/06/13 04:10:23;;;;;;;;;6.00;4.67;;;;;17.84;52.06;101842.09;5095724;27;46159;-65
2022/06/13 04:13:16;;;;;;;;;9.00;6.00;;;;;17.75;52.26;101841.97;5096431;27;45506;-66
2022/06/13 04:16:05;;;;;;;;;6.00;3.67;;;;;17.69;52.38;101839.16;5101670;27;45467;-66
2022/06/13 04:18:37;;;;;;;;;3.33;3.00;;;;;17.73;52.44;101845.53;5100740;27;45311;-67
2022/06/13 04:21:21;;;;;;;;;4.00;4.00;;;;;17.77;52.60;101848.31;5104966;27;46102;-64
2022/06/13 04:24:16;;;;;;;;;8.67;4.33;;;;;17.77;52.25;101850.06;5100970;27;45447;-65
2022/06/13 04:27:15;;;;;;;;;4.00;4.00;;;;;17.68;52.59;101823.81;5105146;27;45468;-65
2022/06/13 04:29:46;;;;;;;;;7.33;6.00;;;;;17.77;52.00;101848.31;5084850;27;45568;-66
2022/06/13 04:32:18;;;;;;;;;6.00;4.67;;;;;17.67;53.23;101832.84;5100773;27;45906;-66
2022/06/13 04:34:46;;;;;;;;;4.67;4.00;;;;;17.55;53.11;101840.75;5104764;27;45583;-66
2022/06/13 04:37:14;;;;;;;;;6.67;5.33;;;;;17.53;53.23;101854.25;5096834;27;45470;-65
2022/06/13 04:39:42;;;;;;;;;6.67;5.00;;;;;17.47;53.70;101846.03;5102265;27;45469;-65
2022/06/13 04:42:09;;;;;;;;;5.67;4.67;;;;;17.45;53.65;101851.41;5104778;27;46049;-64
2022/06/13 04:44:39;;;;;;;;;6.67;5.00;;;;;17.43;53.84;101844.19;5094951;27;45441;-65
2022/06/13 04:47:05;;;;;;;;;14.67;7.00;;;;;17.46;53.64;101849.63;5096949;27;45930;-63
2022/06/13 04:49:42;;;;;;;;;9.33;8.67;;;;;17.46;53.56;101844.22;5094781;27;45437;-65
2022/06/13 04:52:13;;;;;;;;;13.67;8.33;;;;;17.51;53.92;101861.41;5090876;27;46439;-65
2022/06/13 04:54:49;;;;;;;;;5.33;4.33;;;;;17.52;54.04;101856.91;5102897;27;45563;-66
2022/06/13 04:57:17;;;;;;;;;4.00;4.00;;;;;17.53;53.81;101856.94;5102995;27;45424;-65
2022/06/13 04:59:44;;;;;;;;;5.00;4.67;;;;;17.57;53.72;101858.81;5101339;27;45397;-66
2022/06/13 05:02:16;;;;;;;;;4.00;4.00;;;;;17.58;53.64;101863.31;5105087;27;46019;-66
2022/06/13 05:04:42;;;;;;;;;5.33;5.00;;;;;17.54;53.73;101869.56;5102005;27;45424;-66
2022/06/13 05:07:15;;;;;;;;;7.00;5.00;;;;;17.56;54.03;101869.59;5100643;27;45545;-65
2022/06/13 05:10:11;;;;;;;;;10.50;6.00;;;;;17.62;53.99;101873.31;5101014;27;45460;-65
2022/06/13 05:12:43;;;;;;;;;8.00;6.33;;;;;17.64;53.43;101871.53;5098269;27;45523;-65
2022/06/13 05:15:11;;;;;;;;;5.00;3.33;;;;;17.63;53.52;101872.41;5099850;27;45343;-65
2022/06/13 05:18:16;;;;;;;;;7.67;6.33;;;;;17.64;53.56;101873.34;5098479;27;45461;-65
2022/06/13 05:20:56;;;;;;;;;8.00;5.00;;;;;17.54;54.35;101876.75;5103738;27;45325;-65
2022/06/13 05:23:27;;;;;;;;;7.50;6.00;;;;;17.50;54.55;101875.81;5106428;27;45418;-65
2022/06/13 05:25:58;;;;;;;;;5.50;3.50;;;;;17.38;54.62;101871.13;5099980;27;45530;-65
2022/06/13 05:28:26;;;;;;;;;11.00;7.00;;;;;17.47;54.24;101870.34;5097142;27;45908;-65
2022/06/13 05:30:55;;;;;;;;;10.67;7.33;;;;;17.52;54.39;101873.13;5105164;27;45675;-67
2022/06/13 05:33:26;;;;;;;;;5.33;5.00;;;;;17.60;54.19;101874.16;5101672;27;46240;-66
2022/06/13 05:35:54;;;;;;;;;12.67;5.67;;;;;17.61;53.98;101870.59;5102181;27;45642;-65
2022/06/13 05:38:33;;;;;;;;;14.75;10.00;;;;;17.71;53.81;101883.34;5105726;27;45531;-66
2022/06/13 05:40:58;;;;;;;;;8.67;8.67;;;;;17.77;53.62;101878.03;5099522;27;45558;-66
2022/06/13 05:43:24;;;;;;;;;11.75;10.50;;;;;17.82;53.99;101880.81;5104472;27;46232;-65
2022/06/13 05:45:49;;;;;;;;;8.75;7.75;;;;;17.75;53.49;101878.88;5103094;27;45381;-66
2022/06/13 05:48:18;;;;;;;;;8.50;8.25;;;;;17.77;53.96;101875.34;5103561;27;45521;-64
2022/06/13 05:50:43;;;;;;;;;10.00;8.50;;;;;17.83;53.91;101888.91;5101714;27;45505;-65
2022/06/13 05:53:12;;;;;;;;;14.25;8.75;;;;;17.74;53.93;101882.50;5085717;27;47276;-66
2022/06/13 05:55:38;;;;;;;;;11.50;9.50;;;;;17.73;54.14;101896.88;5108933;27;45315;-65
2022/06/13 05:58:03;;;;;;;;;16.50;14.50;;;;;17.80;54.20;101893.38;5112768;27;45287;-67
2022/06/13 06:00:37;;;;;;;;;12.50;10.75;;;;;17.84;53.87;101884.44;5107052;27;45567;-66
2022/06/13 06:03:03;;;;;;;;;14.75;14.25;;;;;17.89;53.96;101887.25;5107865;27;46031;-65
2022/06/13 06:05:29;;;;;;;;;10.33;7.67;;;;;17.94;53.72;101896.34;5108671;27;45541;-65
2022/06/13 06:07:54;;;;;;;;;16.00;13.25;;;;;17.93;53.89;101903.50;5107399;27;45310;-67
2022/06/13 06:10:23;;;;;;;;;14.25;12.00;;;;;17.99;53.73;101900.00;5107034;27;45357;-66
2022/06/13 06:12:48;;;;;;;;;29.50;27.25;;;;;18.02;53.25;101895.53;5101204;27;45580;-68
2022/06/13 06:15:14;;;;;;;;;12.50;10.25;;;;;18.14;53.26;101904.72;5101424;27;45455;-67
2022/06/13 06:17:39;;;;;;;;;11.00;10.00;;;;;18.07;52.92;101887.50;5096304;27;45505;-66
2022/06/13 06:20:06;;;;;;;;;5.67;5.33;;;;;18.17;52.76;101886.72;5103845;27;44802;-67
2022/06/13 06:22:31;;;;;;;;;9.33;8.00;;;;;18.32;53.06;101907.66;5093945;27;47071;-65
2022/06/13 06:24:56;;;;;;;;;7.67;6.00;;;;;18.30;52.99;101916.66;5103674;27;45468;-67
2022/06/13 06:27:22;;;;;;;;;12.25;9.00;;;;;18.05;52.64;101882.06;5102771;27;45694;-67
2022/06/13 06:29:47;;;;;;;;;7.33;7.00;;;;;18.23;52.97;101921.06;5102932;27;45413;-66
2022/06/13 06:32:14;;;;;;;;;7.00;6.00;;;;;18.31;52.87;101915.75;5111171;27;45347;-66
2022/06/13 06:34:39;;;;;;;;;10.25;7.25;;;;;18.22;52.64;101886.78;5103064;27;45396;-68
2022/06/13 06:37:04;;;;;;;;;10.25;6.50;;;;;18.35;52.82;101909.50;5119266;27;44932;-68
2022/06/13 06:39:30;;;;;;;;;11.25;9.25;;;;;18.32;53.16;101913.06;5103942;27;45587;-65
2022/06/13 06:41:56;;;;;;;;;9.00;7.00;;;;;18.46;52.63;101921.34;5122004;27;44936;-65
2022/06/13 06:44:22;;;;;;;;;10.67;10.67;;;;;18.51;52.42;101914.22;5120720;27;45247;-65
2022/06/13 06:46:48;;;;;;;;;7.67;6.33;;;;;18.19;52.21;101863.31;5115468;27;45398;-65
2022/06/13 06:49:13;;;;;;;;;9.00;8.67;;;;;18.47;52.38;101942.13;5104573;27;45233;-64
2022/06/13 06:51:42;;;;;;;;;12.67;6.33;;;;;18.43;51.87;101929.47;5105093;27;45519;-66
2022/06/13 06:59:54;;;;;;;;;12.50;9.50;;;;;18.31;51.82;101853.53;5099085;27;45522;-67
2022/06/13 07:02:23;;;;;;;;;6.33;6.33;;;;;18.74;51.67;101930.75;5093721;27;45999;-67
2022/06/13 07:04:54;;;;;;;;;18.67;8.33;;;;;18.83;51.25;101932.69;5107083;27;45489;-65
2022/06/13 07:07:20;;;;;;;;;9.67;8.67;;;;;18.76;50.68;101899.19;5107432;27;46129;-65
2022/06/13 07:09:45;;;;;;;;;9.33;8.33;;;;;19.07;50.53;101931.09;5104803;27;45464;-67
2022/06/13 07:12:11;;;;;;;;;7.00;7.00;;;;;19.14;50.30;101930.31;5099770;27;45459;-67
2022/06/13 07:14:37;;;;;;;;;10.00;8.75;;;;;19.27;50.06;101934.00;5101201;27;45763;-66
2022/06/13 07:17:05;;;;;;;;;10.67;9.33;;;;;19.27;49.53;101917.75;5099138;27;45416;-65
2022/06/13 07:19:30;;;;;;;;;12.67;9.33;;;;;19.51;49.18;101934.22;5091826;27;45465;-65
2022/06/13 07:21:56;;;;;;;;;5.67;4.67;;;;;19.46;47.88;101911.59;5095676;27;46126;-66
2022/06/13 07:24:22;;;;;;;;;7.67;5.67;;;;;19.63;48.10;101922.59;5103239;27;45582;-65
2022/06/13 07:26:48;;;;;;;;;6.33;4.67;;;;;19.63;47.81;101927.09;5099087;27;45633;-66
2022/06/13 07:29:16;;;;;;;;;8.67;6.00;;;;;19.74;47.55;101929.91;5099174;27;45405;-67
2022/06/13 07:31:53;;;;;;;;;30.00;24.50;;;;;19.79;47.55;101926.34;5095966;27;46028;-66
2022/06/13 07:34:21;;;;;;;;;7.67;6.00;;;;;19.96;46.96;101936.41;5106491;27;45432;-66
2022/06/13 07:36:50;;;;;;;;;18.50;16.25;;;;;20.00;46.80;101931.03;5095394;27;45641;-65
2022/06/13 07:39:15;;;;;;;;;38.50;32.25;;;;;20.07;46.77;101932.84;5089687;27;45408;-67
2022/06/13 07:41:41;;;;;;;;;13.00;9.33;;;;;20.22;46.52;101925.72;5101654;27;46046;-65
2022/06/13 07:44:11;;;;;;;;;10.67;7.33;;;;;20.22;46.45;101925.72;5103193;27;45420;-64
2022/06/13 07:46:36;;;;;;;;;5.67;4.00;;;;;20.35;45.83;101937.56;5100395;27;45349;-64
2022/06/13 07:49:01;;;;;;;;;10.00;7.00;;;;;20.51;45.69;101930.34;5100190;27;45518;-63
2022/06/13 07:51:27;;;;;;;;;7.67;6.00;;;;;20.71;45.07;101925.06;5099683;27;46377;-65
2022/06/13 07:53:53;;;;;;;;;10.67;9.33;;;;;20.79;44.73;101928.72;5089059;27;45961;-65
2022/06/13 07:56:22;;;;;;;;;8.67;6.67;;;;;20.88;45.09;101933.25;5095890;27;45370;-64
2022/06/13 07:58:50;;;;;;;;;11.33;10.33;;;;;20.88;44.34;101933.25;5095696;27;45377;-64
2022/06/13 08:01:16;;;;;;;;;22.50;19.25;;;;;20.96;43.96;101942.34;5095028;27;46107;-63
2022/06/13 08:03:42;;;;;;;;;8.00;6.00;;;;;20.85;42.46;101928.72;5104615;27;45458;-64
2022/06/13 08:06:08;;;;;;;;;6.67;6.33;;;;;20.97;42.05;101938.72;5099671;27;45549;-64
2022/06/13 08:08:36;;;;;;;;;6.33;5.33;;;;;21.02;42.22;101947.78;5103125;27;45948;-64
2022/06/13 08:11:04;;;;;;;;;4.00;4.00;;;;;21.03;41.84;101930.56;5099608;27;45663;-64
2022/06/13 08:13:30;;;;;;;;;8.33;5.00;;;;;21.14;42.35;101936.94;5101006;27;45412;-64
2022/06/13 08:15:56;;;;;;;;;22.50;20.50;;;;;21.23;42.14;101938.75;5097456;27;45541;-64
2022/06/13 08:18:22;;;;;;;;;6.33;4.00;;;;;21.30;41.88;101935.16;5099293;27;45306;-63
2022/06/13 08:20:47;;;;;;;;;11.00;4.67;;;;;21.23;41.50;101917.00;5095648;27;45468;-64
2022/06/13 08:23:15;;;;;;;;;8.00;8.00;;;;;21.32;41.28;101932.44;5104005;27;45644;-65
2022/06/13 08:25:41;;;;;;;;;4.33;4.00;;;;;21.38;40.77;101926.97;5097918;27;45401;-64
2022/06/13 08:28:09;;;;;;;;;7.00;4.33;;;;;21.51;39.76;101938.81;5097440;27;45672;-64
2022/06/13 08:30:43;;;;;;;;;4.00;3.67;;;;;21.53;38.89;101935.19;5098153;27;46041;-65
2022/06/13 08:33:09;;;;;;;;;3.00;3.00;;;;;21.62;38.44;101942.44;5095189;27;45462;-64
2022/06/13 08:35:34;;;;;;;;;3.67;1.00;;;;;21.65;37.98;101933.38;5096016;27;45566;-64
2022/06/13 08:38:03;;;;;;;;;4.33;3.00;;;;;21.65;38.22;101938.81;5097956;27;45479;-65
2022/06/13 08:40:40;;;;;;;;;4.00;3.00;;;;;21.76;38.09;101953.28;5104655;27;47218;-64
2022/06/13 08:43:17;;;;;;;;;6.00;5.00;;;;;21.80;37.65;101949.69;5105918;27;45540;-64
2022/06/13 08:45:50;;;;;;;;;5.67;5.67;;;;;21.77;37.97;101927.00;5100935;27;45288;-64
2022/06/13 08:48:31;;;;;;;;;5.67;4.67;;;;;21.90;37.60;101943.31;5102635;27;45274;-64
2022/06/13 08:51:07;;;;;;;;;10.67;4.67;;;;;21.94;37.39;101937.88;5103445;27;45474;-65
2022/06/13 08:53:44;;;;;;;;;6.00;5.00;;;;;21.90;36.93;101934.25;5100163;27;45752;-65
2022/06/13 08:56:14;;;;;;;;;6.33;3.67;;;;;21.89;37.00;101919.75;5100987;27;45228;-64
2022/06/13 08:58:54;;;;;;;;;3.33;2.00;;;;;22.06;36.91;101936.03;5098524;27;45380;-65
2022/06/13 09:01:32;;;;;;;;;7.33;4.33;;;;;22.16;36.81;101944.16;5097850;27;45408;-64
2022/06/13 09:04:07;;;;;;;;;8.67;4.00;;;;;22.26;36.54;101935.97;5103828;27;45467;-65
2022/06/13 09:06:54;;;;;;;;;4.67;3.00;;;;;22.37;36.14;101935.06;5103201;27;45353;-65
2022/06/13 09:09:28;;;;;;;;;4.67;3.67;;;;;22.47;35.87;101931.38;5099451;27;45432;-65
2022/06/13 09:12:07;;;;;;;;;5.67;4.00;;;;;22.49;35.87;101937.75;5103801;27;46167;-67
2022/06/13 09:14:43;;;;;;;;;4.67;3.00;;;;;22.50;35.36;101920.47;5080889;27;45461;-67
2022/06/13 09:17:20;;;;;;;;;5.00;4.00;;;;;22.17;35.39;101869.75;5100271;27;45535;-66
2022/06/13 09:20:15;;;;;;;;;4.00;4.00;;;;;22.57;35.18;101946.78;5100669;27;45469;-63
2022/06/13 09:22:45;;;;;;;;;8.67;7.00;;;;;22.48;35.35;101896.91;5095845;27;47635;-70
2022/06/13 09:25:47;;;;;;;;;10.33;6.67;;;;;22.56;34.70;101912.28;5102337;27;45382;-69
2022/06/13 09:28:40;;;;;;;;;1.67;1.67;;;;;22.84;33.99;101935.78;5100897;27;45382;-69
2022/06/13 09:31:09;;;;;;;;;6.00;4.00;;;;;22.89;33.74;101929.38;5108667;27;45436;-69
2022/06/13 09:33:39;;;;;;;;;6.33;3.33;;;;;22.88;33.25;101933.00;5097598;27;46030;-69
2022/06/13 09:36:14;;;;;;;;;6.00;5.00;;;;;22.71;33.37;101907.69;5096083;27;45431;-70
2022/06/13 09:38:46;;;;;;;;;8.00;4.00;;;;;22.82;33.75;101919.44;5110069;27;45344;-70
2022/06/13 09:41:22;;;;;;;;;3.00;3.00;;;;;22.81;33.56;101902.16;5102517;27;45374;-69
2022/06/13 09:44:06;;;;;;;;;2.33;2.33;;;;;23.03;32.74;101925.66;5102489;27;46212;-69
2022/06/13 09:46:34;;;;;;;;;14.33;11.33;;;;;23.13;33.26;101928.34;5101890;27;46235;-71
2022/06/13 09:49:37;;;;;;;;;6.00;6.00;;;;;23.10;33.39;101933.81;5100347;27;45398;-71
2022/06/13 09:52:21;;;;;;;;;5.00;3.67;;;;;22.70;32.55;101856.81;5100374;27;45638;-71
2022/06/13 09:54:50;;;;;;;;;5.33;2.00;;;;;23.23;32.37;101945.56;5107340;27;46253;-71
2022/06/13 09:57:49;;;;;;;;;3.00;2.33;;;;;23.28;32.73;101943.69;5097558;27;45425;-71
2022/06/13 10:00:22;;;;;;;;;4.00;3.00;;;;;23.31;32.21;101934.56;5102398;27;45556;-72
2022/06/13 10:03:05;;;;;;;;;5.00;2.67;;;;;23.28;32.27;101937.31;5099382;27;45491;-71
2022/06/13 10:05:48;;;;;;;;;3.00;3.00;;;;;23.31;32.63;101932.78;5102540;27;45388;-71
2022/06/13 10:08:33;;;;;;;;;5.33;4.00;;;;;23.41;32.38;101927.22;5077344;27;45490;-71
2022/06/13 10:11:04;;;;;;;;;3.33;3.33;;;;;23.47;31.89;101922.63;5100825;27;45672;-71
2022/06/13 10:13:35;;;;;;;;;4.33;3.33;;;;;23.41;31.80;101922.66;5103161;27;45460;-71
2022/06/13 10:16:27;;;;;;;;;6.67;5.00;;;;;23.46;32.25;101928.09;5098884;27;46340;-70
2022/06/13 10:19:05;;;;;;;;;3.00;3.00;;;;;23.45;32.30;101929.91;5100268;27;45338;-71
2022/06/13 10:21:40;;;;;;;;;4.00;4.00;;;;;23.50;32.31;101930.78;5098501;27;45278;-72
2022/06/13 10:24:37;;;;;;;;;12.33;11.33;;;;;23.50;32.49;101933.50;5105852;27;45380;-73
2022/06/13 10:27:16;;;;;;;;;5.00;4.00;;;;;23.52;32.21;101922.59;5100766;27;46033;-71
2022/06/13 10:30:11;;;;;;;;;6.00;5.00;;;;;23.53;32.64;101924.41;5100518;27;45506;-72
2022/06/13 10:33:07;;;;;;;;;5.33;4.67;;;;;23.60;32.64;101926.16;5107846;27;45619;-71
2022/06/13 10:35:50;;;;;;;;;4.00;4.00;;;;;23.65;32.52;101923.38;5076854;27;45557;-70
2022/06/13 10:38:43;;;;;;;;;3.33;3.33;;;;;23.62;32.53;101913.38;5102197;27;46414;-71
2022/06/13 10:41:09;;;;;;;;;8.00;3.00;;;;;23.53;32.63;101891.66;5100978;27;45444;-73
2022/06/13 10:43:37;;;;;;;;;3.00;3.00;;;;;23.72;32.62;101922.41;5100424;27;45579;-71
2022/06/13 10:46:06;;;;;;;;;4.00;4.00;;;;;23.73;32.83;101918.75;5104518;27;45416;-71
2022/06/13 10:48:42;;;;;;;;;7.33;4.67;;;;;23.56;32.81;101875.28;5099214;27;45384;-72
2022/06/13 10:51:08;;;;;;;;;6.00;6.00;;;;;23.74;33.01;101910.56;5100560;27;45384;-72
2022/06/13 10:53:41;;;;;;;;;8.00;4.00;;;;;23.69;32.92;101906.06;5089095;27;45485;-72
2022/06/13 10:56:12;;;;;;;;;4.33;4.33;;;;;23.78;32.82;101922.34;5098344;27;45599;-72
2022/06/13 10:58:45;;;;;;;;;7.67;4.33;;;;;23.63;32.74;101904.28;5086596;27;48512;-72
2022/06/13 11:01:11;;;;;;;;;4.00;3.00;;;;;23.72;32.11;101912.38;5098534;27;46004;-72
2022/06/13 11:03:42;;;;;;;;;5.67;3.67;;;;;23.53;32.49;101897.13;5104628;27;45599;-70
2022/06/13 11:06:17;;;;;;;;;3.00;2.00;;;;;23.59;32.17;101920.72;5103244;27;45382;-72
2022/06/13 11:08:44;;;;;;;;;4.33;4.33;;;;;23.55;32.41;101915.28;5077311;27;45554;-71
2022/06/13 11:11:15;;;;;;;;;5.00;3.67;;;;;23.45;31.60;101916.28;5098742;27;45436;-71
2022/06/13 11:13:43;;;;;;;;;3.00;2.00;;;;;23.53;31.35;101914.38;5099304;27;45627;-71
2022/06/13 11:22:37;;;;;;;;;5.00;3.33;;;;;23.29;32.07;101922.78;5102322;27;45410;-71
2022/06/13 11:25:18;;;;;;;;;5.33;4.00;;;;;23.28;32.03;101910.03;5100840;27;45321;-70
2022/06/13 11:28:00;;;;;;;;;9.00;7.33;;;;;23.37;32.29;101907.25;5096416;27;46422;-71
2022/06/13 11:30:25;;;;;;;;;9.00;8.67;;;;;23.47;31.59;101905.34;5098932;27;46603;-71
2022/06/13 11:33:28;;;;;;;;;6.00;4.67;;;;;23.48;31.39;101913.53;5094817;27;45503;-72
2022/06/13 11:36:10;;;;;;;;;8.00;6.67;;;;;23.53;31.64;101919.84;5061342;27;45323;-73
2022/06/13 11:38:37;;;;;;;;;5.00;3.67;;;;;23.55;31.33;101915.28;5095182;27;45536;-71
2022/06/13 11:41:14;;;;;;;;;4.00;2.67;;;;;23.53;31.45;101911.66;5105298;27;46173;-70
2022/06/13 11:43:39;;;;;;;;;4.00;2.00;;;;;23.51;31.70;101909.84;5098725;27;45881;-71
2022/06/13 11:46:15;;;;;;;;;8.00;5.33;;;;;23.43;31.84;101898.09;5102511;27;45425;-70
2022/06/13 11:48:48;;;;;;;;;17.00;15.67;;;;;23.48;31.73;101908.06;5097670;27;45351;-70
2022/06/13 11:51:23;;;;;;;;;5.33;5.33;;;;;23.46;31.56;101900.81;5099084;27;45474;-71
2022/06/13 11:53:52;;;;;;;;;6.00;6.00;;;;;23.19;32.02;101868.31;5095795;27;45539;-71
2022/06/13 11:56:24;;;;;;;;;10.00;10.00;;;;;23.38;32.17;101889.97;5096133;27;45516;-71
2022/06/13 11:58:52;;;;;;;;;4.33;4.33;;;;;23.32;32.12;101888.19;5094963;27;45338;-71
2022/06/13 12:01:26;;;;;;;;;3.67;3.00;;;;;23.33;32.01;101875.50;5088952;27;46268;-70
2022/06/13 12:04:15;;;;;;;;;4.00;4.00;;;;;23.34;32.20;101897.25;5101971;27;45714;-71
2022/06/13 12:06:58;;;;;;;;;3.67;3.67;;;;;23.33;32.07;101879.09;5102622;27;45698;-72
2022/06/13 12:09:34;;;;;;;;;4.67;4.00;;;;;23.37;32.19;101879.97;5100097;27;45429;-70
2022/06/13 12:12:07;;;;;;;;;7.67;3.00;;;;;23.33;32.61;101875.50;5101739;27;46209;-70